Time;durP1;ratioP1;P1;durP2;ratioP2;P2;SDS_P1;SDS_P2;PMS_P1;PMS_P2;Temp;Humidity;BMP_temperature;BMP_pressure;BME280_temperature;BME280_humidity;BME280_pressure;Samples;Min_cycle;Max_cycle;Signal;HPM_P1;HPM_P2
2024/03/04 00:01:43;;;;;;;50.72;31.90;;;7.80;99.90;;;;;;5123737;27;21121;-61
2024/03/04 00:04:09;;;;;;;44.08;31.00;;;7.80;99.90;;;;;;5123279;27;20122;-61
2024/03/04 00:06:35;;;;;;;44.38;31.38;;;7.80;99.90;;;;;;5125942;27;20142;-62
2024/03/04 00:09:00;;;;;;;46.13;31.85;;;7.80;99.90;;;;;;5122762;27;20035;-62
2024/03/04 00:11:26;;;;;;;49.10;32.33;;;7.80;99.90;;;;;;5121845;27;20039;-62
2024/03/04 00:13:52;;;;;;;49.75;33.25;;;7.70;99.90;;;;;;5122027;27;20137;-62
2024/03/04 00:16:18;;;;;;;53.42;33.67;;;7.60;99.90;;;;;;5122226;27;20073;-62
2024/03/04 00:18:44;;;;;;;46.97;32.45;;;7.60;99.90;;;;;;5123652;27;20079;-61
2024/03/04 00:21:09;;;;;;;49.28;32.88;;;7.60;99.90;;;;;;5123169;27;20046;-62
2024/03/04 00:23:36;;;;;;;50.00;32.85;;;7.60;99.90;;;;;;5122508;27;20068;-61
2024/03/04 00:26:01;;;;;;;46.53;31.85;;;7.50;99.90;;;;;;5122587;27;20099;-61
2024/03/04 00:28:27;;;;;;;43.75;30.27;;;7.50;99.90;;;;;;5121862;27;20523;-62
2024/03/04 00:30:54;;;;;;;41.83;29.40;;;7.40;99.90;;;;;;5122085;27;20043;-62
2024/03/04 00:33:20;;;;;;;43.58;31.02;;;7.50;99.90;;;;;;5122549;27;20519;-61
2024/03/04 00:35:46;;;;;;;42.83;29.83;;;7.60;99.90;;;;;;5122271;27;20046;-61
2024/03/04 00:38:12;;;;;;;43.60;29.77;;;7.60;99.90;;;;;;5124649;27;20039;-62
2024/03/04 00:40:38;;;;;;;44.83;29.00;;;7.70;99.90;;;;;;5126091;27;20085;-61
2024/03/04 00:43:04;;;;;;;39.97;28.48;;;7.70;99.90;;;;;;5124752;27;20850;-62
2024/03/04 00:45:31;;;;;;;39.17;28.13;;;7.70;99.90;;;;;;5122039;27;20039;-62
2024/03/04 00:47:57;;;;;;;39.63;27.77;;;7.80;99.90;;;;;;5123854;27;20097;-63
2024/03/04 00:50:23;;;;;;;42.55;29.35;;;7.80;99.90;;;;;;5122517;27;20069;-61
2024/03/04 00:52:48;;;;;;;44.13;29.40;;;7.90;99.90;;;;;;5122865;27;20050;-61
2024/03/04 00:55:14;;;;;;;42.03;30.80;;;7.90;99.90;;;;;;5121727;27;20465;-62
2024/03/04 00:57:40;;;;;;;43.67;29.08;;;8.00;99.90;;;;;;5119544;27;20762;-62
2024/03/04 01:00:14;;;;;;;46.80;29.75;;;8.00;99.90;;;;;;5124611;27;20610;-61
2024/03/04 01:02:41;;;;;;;43.63;29.58;;;8.00;99.90;;;;;;5118389;27;20046;-62
2024/03/04 01:05:07;;;;;;;45.45;30.17;;;8.10;99.90;;;;;;5122843;27;20799;-61
2024/03/04 01:07:33;;;;;;;43.80;31.15;;;8.00;99.90;;;;;;5121620;27;20039;-62
2024/03/04 01:09:59;;;;;;;45.53;30.65;;;8.10;99.90;;;;;;5120841;27;20039;-62
2024/03/04 01:12:24;;;;;;;50.25;31.02;;;8.10;99.90;;;;;;5120697;27;20045;-62
2024/03/04 01:14:50;;;;;;;45.92;31.75;;;8.10;99.90;;;;;;5121806;27;20043;-62
2024/03/04 01:17:16;;;;;;;43.97;31.20;;;8.10;99.90;;;;;;5120241;27;20074;-60
2024/03/04 01:19:47;;;;;;;48.70;32.88;;;8.10;99.90;;;;;;5119860;27;20042;-61
2024/03/04 01:22:17;;;;;;;46.50;32.13;;;8.10;99.90;;;;;;5121954;27;20039;-62
2024/03/04 01:24:50;;;;;;;45.25;31.50;;;8.10;99.90;;;;;;5120672;27;20640;-61
2024/03/04 01:27:17;;;;;;;47.35;30.35;;;8.00;99.90;;;;;;5122512;27;20042;-62
2024/03/04 01:29:43;;;;;;;48.53;32.30;;;7.80;99.90;;;;;;5121253;27;20040;-62
2024/03/04 01:32:09;;;;;;;50.00;32.13;;;8.00;99.90;;;;;;5112444;27;20170;-61
2024/03/04 01:34:39;;;;;;;41.97;29.35;;;8.10;99.90;;;;;;5121176;27;21644;-62
2024/03/04 01:37:06;;;;;;;50.10;32.53;;;8.00;99.90;;;;;;5122573;27;20043;-62
2024/03/04 01:39:33;;;;;;;44.08;29.27;;;8.00;99.90;;;;;;5122285;27;20082;-62
2024/03/04 01:41:59;;;;;;;43.45;29.85;;;7.90;99.90;;;;;;5119683;27;20611;-61
2024/03/04 01:44:38;;;;;;;44.30;30.15;;;7.80;99.90;;;;;;5122211;27;20104;-62
2024/03/04 01:47:07;;;;;;;42.70;29.63;;;7.90;99.90;;;;;;5121839;27;20038;-61
2024/03/04 01:49:35;;;;;;;42.42;29.55;;;7.80;99.90;;;;;;5121137;27;20207;-61
2024/03/04 01:52:02;;;;;;;44.95;31.35;;;7.80;99.90;;;;;;5121437;27;20066;-62
2024/03/04 01:54:29;;;;;;;51.67;31.85;;;7.80;99.90;;;;;;5122587;27;20476;-62
2024/03/04 01:56:55;;;;;;;44.28;29.20;;;7.70;99.90;;;;;;5120021;27;20043;-62
2024/03/04 01:59:22;;;;;;;50.97;32.45;;;7.70;99.90;;;;;;5125130;27;20039;-62
2024/03/04 02:01:49;;;;;;;45.42;29.38;;;7.70;99.90;;;;;;5124190;27;20527;-62
2024/03/04 02:04:15;;;;;;;42.47;30.23;;;7.60;99.90;;;;;;5124864;27;20047;-62
2024/03/04 02:06:41;;;;;;;43.60;30.77;;;7.60;99.90;;;;;;5122710;27;20130;-61
2024/03/04 02:09:12;;;;;;;44.38;29.67;;;7.70;99.90;;;;;;5124527;27;20073;-62
2024/03/04 02:11:38;;;;;;;47.38;28.00;;;7.60;99.90;;;;;;5125768;27;20066;-61
2024/03/04 02:14:06;;;;;;;46.13;28.48;;;7.60;99.90;;;;;;5125117;27;20467;-61
2024/03/04 02:16:32;;;;;;;44.88;29.45;;;7.60;99.90;;;;;;5124246;27;20121;-61
2024/03/04 02:18:58;;;;;;;41.13;28.63;;;7.50;99.90;;;;;;5125903;27;20057;-61
2024/03/04 02:21:26;;;;;;;42.72;29.20;;;7.60;99.90;;;;;;5123498;27;20622;-61
2024/03/04 02:23:52;;;;;;;48.38;30.20;;;7.50;99.90;;;;;;5124821;27;20043;-61
2024/03/04 02:26:17;;;;;;;48.30;30.20;;;7.50;99.90;;;;;;5122666;27;20119;-61
2024/03/04 02:28:43;;;;;;;46.38;29.83;;;7.50;99.90;;;;;;5124712;27;20027;-61
2024/03/04 02:31:10;;;;;;;44.47;29.30;;;7.20;99.90;;;;;;5123553;27;20077;-61
2024/03/04 02:33:37;;;;;;;44.90;29.42;;;7.50;99.90;;;;;;5124863;27;20187;-60
2024/03/04 02:36:04;;;;;;;45.90;28.95;;;7.50;99.90;;;;;;5122967;27;20115;-62
2024/03/04 02:38:31;;;;;;;45.17;31.23;;;7.50;99.90;;;;;;5125343;27;20051;-62
2024/03/04 02:40:59;;;;;;;48.65;31.33;;;7.60;99.90;;;;;;5122628;27;20046;-62
2024/03/04 02:43:26;;;;;;;46.85;30.48;;;7.60;99.90;;;;;;5125719;27;20508;-62
2024/03/04 02:45:52;;;;;;;48.50;32.80;;;7.60;99.90;;;;;;5124788;27;20051;-62
2024/03/04 02:48:18;;;;;;;51.42;32.90;;;7.60;99.90;;;;;;5124733;27;20532;-62
2024/03/04 02:50:43;;;;;;;52.60;32.92;;;7.70;99.90;;;;;;5122311;27;20095;-61
2024/03/04 02:53:09;;;;;;;58.65;35.53;;;7.70;99.90;;;;;;5106867;27;20027;-61
2024/03/04 02:55:37;;;;;;;51.35;33.90;;;7.80;99.90;;;;;;5122777;27;20142;-61
2024/03/04 02:58:03;;;;;;;56.63;34.40;;;7.80;99.90;;;;;;5125938;27;20134;-62
2024/03/04 03:00:29;;;;;;;50.53;33.83;;;7.80;99.90;;;;;;5123765;27;20039;-61
2024/03/04 03:02:56;;;;;;;57.72;33.75;;;7.90;99.90;;;;;;5121390;27;20515;-61
2024/03/04 03:05:22;;;;;;;53.78;34.63;;;7.90;99.90;;;;;;5124458;27;20430;-61
2024/03/04 03:07:47;;;;;;;57.40;35.42;;;8.00;99.90;;;;;;5122001;27;20030;-61
2024/03/04 03:10:13;;;;;;;53.05;34.10;;;8.00;99.90;;;;;;5121188;27;20062;-62
2024/03/04 03:12:39;;;;;;;54.92;35.47;;;8.00;99.90;;;;;;5123457;27;20037;-62
2024/03/04 03:15:06;;;;;;;52.28;34.05;;;8.00;99.90;;;;;;5123293;27;20122;-62
2024/03/04 03:17:32;;;;;;;51.20;31.92;;;8.00;99.90;;;;;;5123932;27;20496;-62
2024/03/04 03:19:57;;;;;;;51.28;33.08;;;8.00;99.90;;;;;;5121191;27;20039;-61
2024/03/04 03:22:23;;;;;;;47.42;31.95;;;8.00;99.90;;;;;;5124190;27;20107;-64
2024/03/04 03:24:49;;;;;;;55.08;34.35;;;8.10;99.90;;;;;;5124598;27;20035;-61
2024/03/04 03:27:15;;;;;;;55.60;33.28;;;8.10;99.90;;;;;;5123736;27;20046;-62
2024/03/04 03:29:40;;;;;;;50.20;33.72;;;8.10;99.90;;;;;;5122458;27;20035;-61
2024/03/04 03:32:07;;;;;;;55.40;34.83;;;8.10;99.90;;;;;;5125810;27;20175;-62
2024/03/04 03:34:33;;;;;;;56.08;35.17;;;8.20;99.90;;;;;;5122181;27;20110;-62
2024/03/04 03:36:59;;;;;;;50.10;33.50;;;8.20;99.90;;;;;;5124567;27;20089;-61
2024/03/04 03:39:24;;;;;;;53.30;33.47;;;8.20;99.90;;;;;;5122931;27;20549;-61
2024/03/04 03:41:50;;;;;;;47.33;31.90;;;8.20;99.90;;;;;;5124446;27;20042;-62
2024/03/04 03:44:16;;;;;;;45.35;31.55;;;8.20;99.90;;;;;;5122242;27;20038;-60
2024/03/04 03:46:42;;;;;;;48.45;31.88;;;8.20;99.90;;;;;;5122012;27;21187;-61
2024/03/04 03:49:08;;;;;;;53.08;32.85;;;8.20;99.90;;;;;;5123018;27;20034;-62
2024/03/04 03:51:36;;;;;;;49.10;32.17;;;8.10;99.90;;;;;;5124450;27;20368;-62
2024/03/04 03:54:02;;;;;;;52.55;32.90;;;8.10;99.90;;;;;;5122998;27;20046;-62
2024/03/04 03:56:27;;;;;;;46.17;30.20;;;8.00;99.90;;;;;;5106045;27;20417;-62
2024/03/04 03:58:53;;;;;;;52.80;33.15;;;8.00;99.90;;;;;;5123062;27;20153;-61
2024/03/04 04:01:19;;;;;;;46.97;30.73;;;7.80;99.90;;;;;;5124013;27;20408;-62
2024/03/04 04:03:45;;;;;;;49.88;31.02;;;7.80;99.90;;;;;;5124014;27;20039;-61
2024/03/04 04:06:12;;;;;;;50.88;32.42;;;7.70;99.90;;;;;;5119615;27;20609;-61
2024/03/04 04:08:40;;;;;;;50.30;30.77;;;7.70;99.90;;;;;;5120473;27;20210;-61
2024/03/04 04:11:06;;;;;;;54.13;32.15;;;7.60;99.90;;;;;;5121471;27;20043;-62
2024/03/04 04:13:32;;;;;;;49.22;31.60;;;7.50;99.90;;;;;;5120083;27;20107;-62
2024/03/04 04:15:58;;;;;;;55.00;33.92;;;7.50;99.90;;;;;;5122532;27;20405;-62
2024/03/04 04:18:24;;;;;;;45.60;31.38;;;7.50;99.90;;;;;;5121684;27;20030;-62
2024/03/04 04:20:50;;;;;;;54.30;34.30;;;7.40;99.90;;;;;;5120989;27;20494;-62
2024/03/04 04:23:16;;;;;;;50.08;33.08;;;7.50;99.90;;;;;;5123533;27;20473;-62
2024/03/04 04:25:42;;;;;;;49.88;31.67;;;7.30;99.90;;;;;;5123494;27;20043;-62
2024/03/04 04:28:09;;;;;;;49.53;30.05;;;7.40;99.90;;;;;;5121534;27;20027;-61
2024/03/04 04:30:38;;;;;;;48.03;32.50;;;7.40;99.90;;;;;;5122776;27;20043;-63
2024/03/04 04:33:04;;;;;;;49.65;32.13;;;7.30;99.90;;;;;;5122749;27;20091;-61
2024/03/04 04:35:30;;;;;;;41.47;30.30;;;7.40;99.90;;;;;;5121828;27;20040;-62
2024/03/04 04:37:55;;;;;;;37.42;27.73;;;7.30;99.90;;;;;;5121988;27;20031;-62
2024/03/04 04:40:21;;;;;;;36.38;24.95;;;7.20;99.90;;;;;;5120245;27;20467;-62
2024/03/04 04:42:47;;;;;;;35.70;25.45;;;7.10;99.90;;;;;;5122555;27;20442;-61
2024/03/04 04:45:12;;;;;;;36.92;25.65;;;7.00;99.90;;;;;;5121327;27;20043;-61
2024/03/04 04:47:38;;;;;;;39.63;26.35;;;6.90;99.90;;;;;;5120997;27;20112;-62
2024/03/04 04:50:05;;;;;;;39.38;27.50;;;6.90;99.90;;;;;;5122197;27;20062;-63
2024/03/04 04:52:31;;;;;;;43.10;27.73;;;7.00;99.90;;;;;;5122193;27;20135;-63
2024/03/04 04:54:57;;;;;;;40.55;28.55;;;7.00;99.90;;;;;;5123368;27;20035;-63
2024/03/04 04:57:25;;;;;;;43.67;28.63;;;7.00;99.90;;;;;;5121122;27;20525;-62
2024/03/04 04:59:50;;;;;;;39.80;26.63;;;7.00;99.90;;;;;;5121444;27;20554;-62
2024/03/04 05:02:16;;;;;;;44.60;29.38;;;7.10;99.90;;;;;;5122540;27;20047;-62
2024/03/04 05:04:45;;;;;;;46.13;30.42;;;7.10;99.90;;;;;;5121889;27;20035;-62
2024/03/04 05:07:11;;;;;;;42.28;28.27;;;7.10;99.90;;;;;;5119962;27;20043;-61
2024/03/04 05:09:36;;;;;;;45.00;29.55;;;7.20;99.90;;;;;;5122091;27;20790;-62
2024/03/04 05:12:02;;;;;;;45.65;29.23;;;7.30;99.90;;;;;;5121481;27;20043;-62
2024/03/04 05:14:28;;;;;;;45.35;30.42;;;7.30;99.90;;;;;;5121745;27;20841;-62
2024/03/04 05:16:55;;;;;;;45.78;30.65;;;7.30;99.90;;;;;;5124286;27;20054;-62
2024/03/04 05:19:23;;;;;;;45.10;31.02;;;7.30;99.90;;;;;;5120570;27;20133;-63
2024/03/04 05:21:50;;;;;;;47.47;30.08;;;7.40;99.90;;;;;;5122479;27;20051;-63
2024/03/04 05:24:16;;;;;;;45.35;30.05;;;7.40;99.90;;;;;;5119977;27;20039;-62
2024/03/04 05:26:41;;;;;;;45.40;29.88;;;7.50;99.90;;;;;;5124832;27;20035;-63
2024/03/04 05:29:07;;;;;;;46.33;31.05;;;7.50;99.90;;;;;;5121278;27;20084;-62
2024/03/04 05:31:33;;;;;;;43.80;31.23;;;7.50;99.90;;;;;;5123192;27;20038;-63
2024/03/04 05:33:59;;;;;;;46.35;30.58;;;7.60;99.90;;;;;;5122549;27;20039;-62
2024/03/04 05:36:24;;;;;;;47.33;30.83;;;7.60;99.90;;;;;;5125679;27;20046;-62
2024/03/04 05:38:50;;;;;;;50.78;33.88;;;7.60;99.90;;;;;;5126826;27;20480;-62
2024/03/04 05:41:16;;;;;;;48.30;31.90;;;7.60;99.90;;;;;;5125816;27;21309;-61
2024/03/04 05:43:42;;;;;;;45.28;29.55;;;7.60;99.90;;;;;;5127303;27;20042;-60
2024/03/04 05:46:08;;;;;;;46.78;31.60;;;7.70;99.90;;;;;;5129196;27;20278;-60
2024/03/04 05:48:33;;;;;;;52.97;33.95;;;7.70;99.90;;;;;;5124746;27;20054;-61
2024/03/04 05:51:00;;;;;;;45.22;31.73;;;7.80;99.90;;;;;;5126147;27;20039;-61
2024/03/04 05:53:27;;;;;;;45.63;30.90;;;7.80;99.90;;;;;;5125602;27;20159;-62
2024/03/04 05:55:53;;;;;;;55.55;34.65;;;7.80;99.90;;;;;;5122630;27;20043;-62
2024/03/04 05:58:22;;;;;;;53.65;33.70;;;7.80;99.90;;;;;;5122710;27;20521;-61
2024/03/04 06:00:47;;;;;;;52.72;33.38;;;7.80;99.90;;;;;;5123780;27;20123;-61
2024/03/04 06:03:13;;;;;;;48.83;32.97;;;7.80;99.90;;;;;;5121906;27;20435;-62
2024/03/04 06:05:39;;;;;;;50.05;32.63;;;7.80;99.90;;;;;;5121192;27;20130;-61
2024/03/04 06:08:05;;;;;;;47.83;32.60;;;7.90;99.90;;;;;;5124200;27;20568;-62
2024/03/04 06:10:31;;;;;;;48.47;33.05;;;7.90;99.90;;;;;;5121770;27;20649;-61
2024/03/04 06:12:57;;;;;;;49.20;31.55;;;7.90;99.90;;;;;;5121564;27;20043;-62
2024/03/04 06:15:22;;;;;;;51.80;32.20;;;7.90;99.90;;;;;;5122286;27;20034;-62
2024/03/04 06:17:48;;;;;;;47.08;30.80;;;7.90;99.90;;;;;;5120007;27;20589;-63
2024/03/04 06:20:14;;;;;;;54.83;32.22;;;8.00;99.90;;;;;;5122038;27;20030;-62
2024/03/04 06:22:40;;;;;;;54.90;33.13;;;7.90;99.90;;;;;;5119657;27;20535;-61
2024/03/04 06:25:06;;;;;;;52.03;33.13;;;7.90;99.90;;;;;;5121238;27;20495;-62
2024/03/04 06:27:33;;;;;;;56.88;33.40;;;7.90;99.90;;;;;;5119498;27;20051;-62
2024/03/04 06:30:00;;;;;;;48.92;31.50;;;7.90;99.90;;;;;;5122637;27;20045;-62
2024/03/04 06:32:26;;;;;;;51.75;33.47;;;7.90;99.90;;;;;;5123014;27;20516;-62
2024/03/04 06:34:52;;;;;;;49.33;31.90;;;7.90;99.90;;;;;;5122199;27;20039;-63
2024/03/04 06:37:17;;;;;;;55.53;33.58;;;7.90;99.90;;;;;;5125972;27;20465;-62
2024/03/04 06:39:46;;;;;;;47.85;31.25;;;7.80;99.90;;;;;;5128231;27;20048;-63
2024/03/04 06:42:12;;;;;;;56.25;33.92;;;7.80;99.90;;;;;;5122054;27;20110;-62
2024/03/04 06:44:37;;;;;;;45.67;31.67;;;7.90;99.90;;;;;;5121686;27;20624;-62
2024/03/04 06:47:03;;;;;;;48.03;31.40;;;7.90;99.90;;;;;;5120369;27;20043;-62
2024/03/04 06:49:29;;;;;;;49.75;33.45;;;7.80;99.90;;;;;;5123659;27;20046;-61
2024/03/04 06:51:55;;;;;;;49.80;31.13;;;7.80;99.90;;;;;;5122275;27;20500;-62
2024/03/04 06:54:21;;;;;;;48.67;33.35;;;7.80;99.90;;;;;;5122022;27;20039;-63
2024/03/04 06:56:46;;;;;;;44.00;29.13;;;7.70;99.90;;;;;;5121572;27;20509;-63
2024/03/04 06:59:12;;;;;;;44.75;30.77;;;7.70;99.90;;;;;;5119494;27;20035;-63
2024/03/04 07:01:38;;;;;;;43.30;29.77;;;7.60;99.90;;;;;;5120601;27;20504;-63
2024/03/04 07:04:03;;;;;;;36.55;27.88;;;7.60;99.90;;;;;;5120058;27;20039;-62
2024/03/04 07:06:29;;;;;;;39.15;28.63;;;7.60;99.90;;;;;;5121390;27;20043;-62
2024/03/04 07:08:56;;;;;;;39.72;27.77;;;7.50;99.90;;;;;;5121938;27;20055;-62
2024/03/04 07:11:22;;;;;;;41.95;29.27;;;7.40;99.90;;;;;;5119543;27;20498;-63
2024/03/04 07:13:48;;;;;;;38.42;28.10;;;7.50;99.90;;;;;;5120879;27;20098;-63
2024/03/04 07:16:17;;;;;;;40.15;28.35;;;7.50;99.90;;;;;;5122179;27;20580;-60
2024/03/04 07:18:44;;;;;;;40.83;28.80;;;7.40;99.90;;;;;;5122208;27;20039;-62
2024/03/04 07:21:20;;;;;;;41.13;29.00;;;7.50;99.90;;;;;;5119529;27;20253;-61
2024/03/04 07:23:46;;;;;;;38.88;28.27;;;7.60;99.90;;;;;;5119146;27;20497;-62
2024/03/04 07:26:15;;;;;;;38.85;27.55;;;7.60;99.90;;;;;;5116830;27;20959;-62
2024/03/04 07:28:41;;;;;;;39.00;29.10;;;7.50;99.90;;;;;;5120201;27;21417;-61
2024/03/04 07:31:11;;;;;;;47.53;30.88;;;7.50;99.90;;;;;;5119657;27;20072;-61
2024/03/04 07:33:37;;;;;;;43.45;31.17;;;7.60;99.90;;;;;;5119567;27;20030;-63
2024/03/04 07:36:03;;;;;;;60.33;33.40;;;7.60;99.90;;;;;;5118011;27;20043;-63
2024/03/04 07:38:29;;;;;;;49.05;32.47;;;7.60;99.90;;;;;;5118947;27;20712;-62
2024/03/04 07:40:55;;;;;;;58.92;34.03;;;7.60;99.90;;;;;;5120692;27;20035;-61
2024/03/04 07:43:21;;;;;;;92.20;35.50;;;7.60;99.90;;;;;;5121242;27;20039;-63
2024/03/04 07:45:47;;;;;;;70.03;35.47;;;7.60;99.90;;;;;;5119218;27;20051;-63
2024/03/04 07:48:13;;;;;;;82.93;36.55;;;7.60;99.90;;;;;;5120516;27;20063;-62
2024/03/04 07:50:38;;;;;;;104.97;36.88;;;7.70;99.90;;;;;;5120342;27;20066;-63
2024/03/04 07:53:04;;;;;;;93.68;38.67;;;7.60;99.90;;;;;;5121447;27;20061;-62
2024/03/04 07:55:30;;;;;;;79.90;38.15;;;7.70;99.90;;;;;;5117200;27;20623;-62
2024/03/04 07:57:56;;;;;;;89.18;38.88;;;7.70;99.90;;;;;;5118453;27;20043;-61
2024/03/04 08:00:22;;;;;;;119.55;39.88;;;7.70;99.90;;;;;;5120458;27;20086;-63
2024/03/04 08:02:47;;;;;;;113.20;39.50;;;7.80;99.90;;;;;;5120742;27;20088;-62
2024/03/04 08:05:13;;;;;;;139.10;42.88;;;7.70;99.90;;;;;;5124541;27;20031;-63
2024/03/04 08:07:39;;;;;;;128.10;41.42;;;7.80;99.90;;;;;;5128376;27;20549;-62
2024/03/04 08:10:08;;;;;;;98.38;41.53;;;7.80;99.90;;;;;;5126022;27;20046;-61
2024/03/04 08:12:34;;;;;;;124.45;42.50;;;7.90;99.90;;;;;;5118433;27;20042;-62
2024/03/04 08:15:01;;;;;;;126.00;44.58;;;7.90;99.90;;;;;;5120022;27;20039;-62
2024/03/04 08:17:26;;;;;;;100.32;42.97;;;7.90;99.90;;;;;;5119510;27;20047;-62
2024/03/04 08:19:56;;;;;;;97.07;42.42;;;8.00;99.90;;;;;;5120227;27;21576;-62
2024/03/04 08:22:22;;;;;;;;;;;8.10;99.90;;;;;;5119869;27;20038;-62
2024/03/04 08:24:48;;;;;;;104.85;43.40;;;8.10;99.90;;;;;;5119675;27;19971;-63
2024/03/04 08:27:15;;;;;;;107.68;44.35;;;8.20;99.90;;;;;;5120006;27;20142;-63
2024/03/04 08:29:40;;;;;;;97.35;41.50;;;8.30;99.90;;;;;;5119073;27;20167;-62
2024/03/04 08:32:06;;;;;;;122.90;45.03;;;8.30;99.90;;;;;;5121216;27;20500;-63
2024/03/04 08:34:32;;;;;;;107.03;44.65;;;8.40;99.90;;;;;;5119037;27;20219;-63
2024/03/04 08:36:59;;;;;;;106.43;43.92;;;8.50;99.90;;;;;;5119852;27;20456;-62
2024/03/04 08:39:24;;;;;;;93.25;41.70;;;8.50;99.90;;;;;;5118451;27;20066;-63
2024/03/04 08:41:50;;;;;;;119.65;46.33;;;8.60;99.90;;;;;;5118418;27;21671;-63
2024/03/04 08:44:17;;;;;;;107.40;42.95;;;8.50;99.90;;;;;;5119497;27;20053;-63
2024/03/04 08:46:43;;;;;;;107.07;45.65;;;8.60;99.90;;;;;;5109658;27;20034;-62
2024/03/04 08:49:09;;;;;;;111.18;43.65;;;8.70;99.90;;;;;;5116014;27;20246;-62
2024/03/04 08:51:35;;;;;;;113.03;45.13;;;8.80;99.90;;;;;;5122519;27;20114;-63
2024/03/04 08:54:01;;;;;;;115.20;45.28;;;8.80;99.90;;;;;;5124710;27;20877;-62
2024/03/04 08:56:27;;;;;;;112.15;45.13;;;8.90;99.90;;;;;;5122637;27;20781;-62
2024/03/04 08:58:59;;;;;;;103.95;44.15;;;8.90;99.90;;;;;;5113511;27;20222;-63
2024/03/04 09:01:26;;;;;;;96.60;40.90;;;9.00;99.90;;;;;;5126105;27;20047;-63
2024/03/04 09:03:52;;;;;;;94.85;41.22;;;9.00;99.90;;;;;;5123400;27;20126;-62
2024/03/04 09:06:19;;;;;;;107.25;40.72;;;9.00;99.90;;;;;;5127078;27;20030;-62
2024/03/04 09:08:45;;;;;;;105.78;41.10;;;9.00;99.90;;;;;;5127193;27;20054;-62
2024/03/04 09:11:11;;;;;;;101.85;40.83;;;9.10;99.90;;;;;;5129536;27;20445;-62
2024/03/04 09:13:37;;;;;;;97.65;40.45;;;9.10;99.90;;;;;;5132320;27;20193;-62
2024/03/04 09:16:04;;;;;;;87.78;39.60;;;9.10;99.90;;;;;;5131356;27;21674;-62
2024/03/04 09:18:30;;;;;;;92.50;38.60;;;9.10;99.90;;;;;;5131184;27;20185;-62
2024/03/04 09:20:56;;;;;;;88.65;38.13;;;9.10;99.90;;;;;;5129680;27;20509;-63
2024/03/04 09:23:23;;;;;;;96.75;39.25;;;9.20;99.90;;;;;;5131398;27;20039;-62
2024/03/04 09:25:49;;;;;;;95.97;40.58;;;9.20;99.90;;;;;;5130360;27;20035;-63
2024/03/04 09:28:15;;;;;;;94.65;40.35;;;9.20;99.90;;;;;;5131024;27;20043;-62
2024/03/04 09:30:41;;;;;;;78.05;35.42;;;9.20;99.90;;;;;;5132010;27;20054;-63
2024/03/04 09:33:07;;;;;;;70.45;34.03;;;9.20;99.90;;;;;;5133708;27;20051;-62
2024/03/04 09:35:33;;;;;;;72.40;34.65;;;9.20;99.90;;;;;;5130447;27;20472;-63
2024/03/04 09:37:59;;;;;;;78.57;36.00;;;9.20;99.90;;;;;;5130463;27;20525;-63
2024/03/04 09:40:25;;;;;;;83.22;37.20;;;9.30;99.90;;;;;;5128845;27;20164;-63
2024/03/04 09:42:51;;;;;;;75.35;35.78;;;9.30;99.90;;;;;;5131801;27;20081;-63
2024/03/04 09:45:21;;;;;;;80.15;34.75;;;9.30;99.90;;;;;;5130960;27;20034;-63
2024/03/04 09:48:07;;;;;;;86.13;37.65;;;9.40;99.90;;;;;;5129145;27;20047;-64
2024/03/04 09:50:34;;;;;;;87.30;38.30;;;9.40;99.90;;;;;;5126417;27;20034;-62
2024/03/04 09:53:02;;;;;;;85.55;37.67;;;9.50;99.90;;;;;;5132855;27;20435;-63
2024/03/04 09:55:27;;;;;;;84.82;36.45;;;9.50;99.90;;;;;;5129000;27;20039;-61
2024/03/04 09:57:54;;;;;;;91.15;39.28;;;9.50;99.90;;;;;;5129980;27;20054;-62
2024/03/04 10:00:22;;;;;;;88.40;39.10;;;9.50;99.90;;;;;;5130919;27;20035;-62
2024/03/04 10:02:48;;;;;;;88.60;38.57;;;9.50;99.90;;;;;;5131000;27;20030;-62
2024/03/04 10:05:15;;;;;;;86.22;37.28;;;9.60;99.90;;;;;;5128140;27;20383;-63
2024/03/04 10:07:41;;;;;;;89.07;38.00;;;9.70;99.90;;;;;;5130981;27;20043;-63
2024/03/04 10:10:10;;;;;;;71.30;34.97;;;9.70;99.90;;;;;;5127125;27;20055;-63
2024/03/04 10:12:36;;;;;;;78.53;36.22;;;9.70;99.90;;;;;;5129950;27;20132;-61
2024/03/04 10:15:12;;;;;;;87.60;38.60;;;9.60;99.90;;;;;;5130745;27;20043;-62
2024/03/04 10:17:39;;;;;;;91.05;38.95;;;9.70;99.90;;;;;;5131194;27;20526;-61
2024/03/04 10:20:15;;;;;;;84.65;38.22;;;9.60;99.90;;;;;;5130515;27;20505;-62
2024/03/04 10:22:42;;;;;;;81.60;37.05;;;9.60;99.90;;;;;;5117604;27;20086;-62
2024/03/04 10:25:12;;;;;;;83.57;38.40;;;9.70;99.90;;;;;;5130257;27;20046;-62
2024/03/04 10:27:40;;;;;;;79.35;36.92;;;9.70;99.90;;;;;;5122164;27;20043;-62
2024/03/04 10:30:33;;;;;;;83.32;37.35;;;9.80;99.90;;;;;;5128690;27;20061;-62
2024/03/04 10:33:02;;;;;;;79.60;36.80;;;9.80;99.90;;;;;;5126256;27;20490;-63
2024/03/04 10:35:28;;;;;;;80.85;36.78;;;9.90;99.90;;;;;;5128196;27;20088;-62
2024/03/04 10:38:02;;;;;;;74.50;36.17;;;10.00;99.90;;;;;;5130684;27;20588;-64
2024/03/04 10:40:29;;;;;;;76.43;36.55;;;10.00;99.90;;;;;;5128337;27;20045;-63
2024/03/04 10:43:03;;;;;;;74.30;35.20;;;9.90;99.90;;;;;;5128026;27;20041;-63
2024/03/04 10:45:31;;;;;;;68.13;33.47;;;10.00;99.90;;;;;;5129032;27;20042;-61
2024/03/04 10:48:01;;;;;;;74.35;35.63;;;10.00;99.90;;;;;;5127681;27;20039;-62
2024/03/04 10:50:28;;;;;;;80.07;38.15;;;10.00;99.90;;;;;;5130929;27;20151;-62
2024/03/04 10:52:54;;;;;;;78.95;36.55;;;10.00;99.90;;;;;;5129883;27;20217;-62
2024/03/04 10:55:20;;;;;;;80.28;35.15;;;10.00;99.90;;;;;;5129428;27;20122;-62
2024/03/04 10:57:48;;;;;;;72.95;35.17;;;9.90;99.90;;;;;;5129984;27;20046;-63
2024/03/04 11:02:59;;;;;;;76.82;37.40;;;9.90;99.90;;;;;;5128451;27;20043;-61
2024/03/04 11:05:26;;;;;;;64.05;32.92;;;9.90;99.90;;;;;;5129232;27;20039;-62
2024/03/04 11:08:16;;;;;;;71.22;34.15;;;9.90;99.90;;;;;;5127402;27;20404;-62
2024/03/04 11:10:45;;;;;;;71.32;33.25;;;10.00;99.90;;;;;;5132606;27;20128;-62
2024/03/04 11:13:29;;;;;;;60.33;31.50;;;10.00;99.90;;;;;;5126033;27;20039;-62
2024/03/04 11:16:00;;;;;;;70.32;34.55;;;10.00;99.90;;;;;;5131126;27;20073;-62
2024/03/04 11:18:52;;;;;;;68.85;33.47;;;10.00;99.90;;;;;;5125692;27;20476;-61
2024/03/04 11:21:18;;;;;;;76.35;35.20;;;10.00;99.90;;;;;;5129256;27;20115;-62
2024/03/04 11:23:46;;;;;;;75.78;36.38;;;10.00;99.90;;;;;;5128237;27;20096;-62
2024/03/04 11:26:13;;;;;;;79.53;36.60;;;10.00;99.90;;;;;;5128365;27;20493;-62
2024/03/04 11:28:39;;;;;;;74.03;34.40;;;9.90;99.90;;;;;;5130072;27;20567;-62
2024/03/04 11:31:22;;;;;;;79.15;36.33;;;9.90;99.90;;;;;;5126057;27;20135;-62
2024/03/04 11:33:57;;;;;;;74.47;34.50;;;10.00;99.90;;;;;;5128962;27;20174;-62
2024/03/04 11:36:23;;;;;;;75.40;34.42;;;9.90;99.90;;;;;;5129048;27;20068;-61
2024/03/04 11:38:51;;;;;;;69.63;34.58;;;9.90;99.90;;;;;;5128835;27;20037;-61
2024/03/04 11:41:39;;;;;;;66.13;33.78;;;9.90;99.90;;;;;;5128027;27;20045;-62
2024/03/04 11:44:04;;;;;;;73.75;34.22;;;9.80;99.90;;;;;;5126023;27;20076;-62
2024/03/04 11:46:36;;;;;;;68.13;34.50;;;9.80;99.90;;;;;;5130456;27;20043;-63
2024/03/04 11:49:20;;;;;;;74.28;34.00;;;9.80;99.90;;;;;;5127674;27;20046;-62
2024/03/04 11:51:55;;;;;;;74.68;34.22;;;9.80;99.90;;;;;;5128554;27;20035;-61
2024/03/04 11:54:21;;;;;;;72.88;33.83;;;9.80;99.90;;;;;;5127591;27;20035;-62
2024/03/04 11:56:49;;;;;;;80.28;34.97;;;9.80;99.90;;;;;;5125612;27;20107;-61
2024/03/04 11:59:14;;;;;;;82.80;36.63;;;9.80;99.90;;;;;;5127720;27;20122;-61
2024/03/04 12:01:40;;;;;;;89.15;35.50;;;9.90;99.90;;;;;;5130297;27;20548;-62
2024/03/04 12:04:07;;;;;;;94.22;38.80;;;10.00;99.90;;;;;;5130360;27;20042;-61
2024/03/04 12:06:33;;;;;;;90.13;39.05;;;9.90;99.90;;;;;;5127155;27;20138;-62
2024/03/04 12:09:00;;;;;;;101.30;40.42;;;10.00;99.90;;;;;;5128295;27;20047;-61
2024/03/04 12:11:26;;;;;;;94.05;39.92;;;10.10;99.90;;;;;;5125294;27;20071;-61
2024/03/04 12:13:53;;;;;;;91.03;38.17;;;10.10;99.90;;;;;;5127586;27;20696;-61
2024/03/04 12:16:18;;;;;;;93.25;38.65;;;10.00;99.90;;;;;;5126671;27;20111;-60
2024/03/04 12:18:48;;;;;;;92.47;38.40;;;10.10;99.90;;;;;;5126382;27;20548;-60
2024/03/04 12:21:14;;;;;;;92.90;38.60;;;10.20;99.90;;;;;;5126946;27;20131;-61
2024/03/04 12:23:40;;;;;;;94.78;38.75;;;10.10;99.90;;;;;;5126968;27;20038;-61
2024/03/04 12:26:13;;;;;;;103.25;43.00;;;10.10;99.90;;;;;;5127925;27;20050;-61
2024/03/04 12:28:39;;;;;;;94.57;41.33;;;10.10;99.90;;;;;;5127572;27;20502;-61
2024/03/04 12:31:11;;;;;;;101.10;40.65;;;10.10;99.90;;;;;;5125512;27;20050;-61
2024/03/04 12:33:37;;;;;;;88.65;39.28;;;10.10;99.90;;;;;;5127962;27;20031;-62
2024/03/04 12:36:07;;;;;;;98.03;41.53;;;10.10;99.90;;;;;;5126944;27;20494;-61
2024/03/04 12:38:33;;;;;;;83.13;34.78;;;10.10;99.90;;;;;;5127739;27;20043;-61